EGNR/CEG METAR and TAF weather

Enter ICAO airport designator
Station Type Date Time Source
EGNR METAR 2020/07/11 16:20 UTC NOAA

EGNR 111620Z 31011KT 260V350 9999 FEW038 16/06 Q1029


Station Type Date Time Source
EGNR Decoded METAR 2020/07/11 16:20 UTC NOAA

Hawarden, United Kingdom (EGNR) 53-10N 002-59W 0M
Jul 11, 2020 - 12:20 PM EDT / 2020.07.11 1620 UTC
Wind: from the NW (310 degrees) at 13 MPH (11 KT) (direction variable):0
Visibility: greater than 7 mile(s):0
Sky conditions: mostly clear
Temperature: 60 F (16 C)
Dew Point: 42 F (6 C)
Relative Humidity: 51%
Pressure (altimeter): 30.39 in. Hg (1029 hPa)
ob: EGNR 111620Z 31011KT 260V350 9999 FEW038 16/06 Q1029
cycle: 16

Station Type Date Time Source
EGNR TAF 2016/01/23 12:00 UTC NOAA

TAF EGNR 231059Z 2312/2319 15009KT 9999 FEW020
BECMG 2316/2319 BKN014
TEMPO 2317/2319 6000 RA BKN008

Example: see airport list